createdAt,value
2023-01-06T00:00:48.978Z,8.66
2023-01-06T00:01:49.028Z,8.63
2023-01-06T00:02:49.048Z,8.58
2023-01-06T00:03:48.844Z,8.58
2023-01-06T00:04:48.842Z,8.58
2023-01-06T00:05:48.860Z,8.52
2023-01-06T00:06:48.805Z,8.58
2023-01-06T00:07:48.829Z,8.46
2023-01-06T00:08:48.794Z,8.58
2023-01-06T00:09:48.814Z,8.56
2023-01-06T00:10:48.999Z,8.49
2023-01-06T00:11:49.007Z,8.48
2023-01-06T00:12:48.779Z,8.58
2023-01-06T00:13:48.778Z,8.51
2023-01-06T00:14:48.728Z,8.52
2023-01-06T00:15:48.756Z,8.53
2023-01-06T00:16:48.701Z,8.56
2023-01-06T00:17:48.830Z,8.58
2023-01-06T00:18:48.701Z,8.66
2023-01-06T00:19:48.739Z,8.61
2023-01-06T00:20:48.693Z,8.63
2023-01-06T00:21:48.659Z,8.63
2023-01-06T00:22:48.666Z,8.55
2023-01-06T00:23:48.634Z,8.63
2023-01-06T00:24:48.646Z,8.53
2023-01-06T00:25:48.677Z,8.53
2023-01-06T00:26:48.596Z,8.53
2023-01-06T00:27:48.612Z,8.52
2023-01-06T00:28:48.590Z,8.53
2023-01-06T00:29:48.584Z,8.55
2023-01-06T00:30:48.663Z,8.48
2023-01-06T00:31:48.563Z,8.60
2023-01-06T00:32:48.528Z,8.52
2023-01-06T00:33:48.632Z,8.53
2023-01-06T00:34:48.525Z,8.48
2023-01-06T00:35:48.491Z,8.45
2023-01-06T00:36:48.497Z,8.49
2023-01-06T00:37:48.489Z,8.56
2023-01-06T00:38:48.540Z,8.51
2023-01-06T00:39:48.488Z,8.55
2023-01-06T00:40:48.451Z,8.55
2023-01-06T00:41:48.648Z,8.46
2023-01-06T00:42:48.428Z,8.51
2023-01-06T00:43:48.438Z,8.52
2023-01-06T00:44:48.645Z,8.46
2023-01-06T00:45:48.408Z,8.51
2023-01-06T00:46:48.408Z,8.51
2023-01-06T00:47:48.383Z,8.45
2023-01-06T00:49:03.927Z,8.42
2023-01-06T00:49:48.491Z,8.45
2023-01-06T00:50:48.342Z,8.44
2023-01-06T00:51:48.347Z,8.55
2023-01-06T00:52:48.379Z,8.60
2023-01-06T00:53:48.319Z,8.52
2023-01-06T00:54:48.327Z,8.55
2023-01-06T00:55:48.291Z,8.51
2023-01-06T00:56:48.502Z,8.46
2023-01-06T00:57:48.278Z,8.45
2023-01-06T00:58:48.299Z,8.58
2023-01-06T00:59:48.263Z,8.56
2023-01-06T01:00:48.287Z,8.60
2023-01-06T01:01:48.351Z,8.52
2023-01-06T01:02:48.259Z,8.61
2023-01-06T01:03:48.229Z,8.46
2023-01-06T01:04:48.406Z,8.48
2023-01-06T01:05:48.290Z,8.66
2023-01-06T01:06:48.200Z,8.61
2023-01-06T01:07:48.215Z,8.60
2023-01-06T01:08:48.387Z,8.63
2023-01-06T01:09:48.197Z,8.61
2023-01-06T01:10:48.137Z,8.70
2023-01-06T01:11:48.145Z,8.66
2023-01-06T01:12:48.117Z,8.66
2023-01-06T01:13:48.107Z,8.67
2023-01-06T01:14:48.110Z,8.63
2023-01-06T01:15:48.103Z,8.67
2023-01-06T01:16:48.115Z,8.66
2023-01-06T01:17:48.064Z,8.66
2023-01-06T01:18:48.080Z,8.64
2023-01-06T01:19:48.082Z,8.64
2023-01-06T01:20:48.044Z,8.66
2023-01-06T01:21:48.161Z,8.64
2023-01-06T01:22:48.026Z,8.58
2023-01-06T01:23:48.069Z,8.55
2023-01-06T01:24:48.028Z,8.55
2023-01-06T01:25:47.969Z,8.61
2023-01-06T01:26:47.967Z,8.55
2023-01-06T01:27:47.959Z,8.63
2023-01-06T01:28:47.961Z,8.60
2023-01-06T01:29:47.949Z,8.60
2023-01-06T01:30:47.995Z,8.66
2023-01-06T01:31:48.106Z,8.66
2023-01-06T01:32:47.893Z,8.64
2023-01-06T01:33:47.879Z,8.66
2023-01-06T01:34:47.861Z,8.67
2023-01-06T01:35:48.050Z,8.66
2023-01-06T01:36:47.865Z,8.64
2023-01-06T01:37:47.978Z,8.66
2023-01-06T01:38:47.847Z,8.69
2023-01-06T01:39:47.845Z,8.69
2023-01-06T01:40:47.825Z,8.69
2023-01-06T01:41:47.809Z,8.67
2023-01-06T01:42:47.773Z,8.61
2023-01-06T01:43:47.767Z,8.74
2023-01-06T01:44:47.795Z,8.73
2023-01-06T01:45:47.769Z,8.70
2023-01-06T01:46:47.758Z,8.78
2023-01-06T01:47:47.745Z,8.76
2023-01-06T01:48:47.731Z,8.78
2023-01-06T01:49:47.706Z,8.76
2023-01-06T01:50:47.740Z,8.85
2023-01-06T01:51:47.701Z,8.76
2023-01-06T01:52:47.685Z,8.76
2023-01-06T01:53:47.787Z,8.82
2023-01-06T01:54:47.892Z,8.76
2023-01-06T01:55:47.715Z,8.87
2023-01-06T01:56:47.654Z,8.82
2023-01-06T01:57:47.825Z,8.84
2023-01-06T01:58:47.613Z,8.84
2023-01-06T01:59:47.634Z,8.88
2023-01-06T02:00:47.625Z,8.82
2023-01-06T02:01:47.714Z,8.79
2023-01-06T02:02:47.637Z,8.87
2023-01-06T02:03:47.768Z,8.94
2023-01-06T02:04:47.552Z,8.92
2023-01-06T02:05:47.744Z,8.94
2023-01-06T02:06:47.570Z,8.88
2023-01-06T02:07:47.752Z,8.89
2023-01-06T02:08:47.523Z,8.88
2023-01-06T02:09:47.624Z,8.88
2023-01-06T02:10:47.491Z,8.82
2023-01-06T02:11:47.596Z,8.85
2023-01-06T02:12:47.493Z,8.92
2023-01-06T02:13:47.488Z,8.85
2023-01-06T02:14:47.430Z,8.94
2023-01-06T02:15:47.443Z,8.91
2023-01-06T02:16:47.409Z,8.97
2023-01-06T02:17:47.441Z,8.94
2023-01-06T02:18:47.407Z,8.92
2023-01-06T02:19:47.412Z,8.94
2023-01-06T02:20:47.403Z,8.94
2023-01-06T02:21:47.374Z,8.97
2023-01-06T02:22:47.398Z,8.92
2023-01-06T02:23:47.349Z,8.91
2023-01-06T02:24:47.385Z,8.92
2023-01-06T02:25:47.441Z,8.99
2023-01-06T02:26:47.331Z,8.94
2023-01-06T02:27:47.306Z,8.92
2023-01-06T02:28:47.300Z,9.03
2023-01-06T02:29:47.296Z,8.91
2023-01-06T02:30:47.279Z,9.00
2023-01-06T02:31:47.285Z,9.08
2023-01-06T02:32:47.242Z,9.04
2023-01-06T02:33:47.252Z,9.02
2023-01-06T02:34:47.262Z,9.04
2023-01-06T02:35:47.430Z,9.03
2023-01-06T02:36:47.210Z,9.02
2023-01-06T02:37:47.212Z,8.97
2023-01-06T02:38:47.178Z,8.95
2023-01-06T02:39:47.188Z,8.99
2023-01-06T02:40:47.174Z,8.91
2023-01-06T02:41:47.288Z,9.02
2023-01-06T02:42:47.134Z,9.00
2023-01-06T02:43:47.208Z,8.97
2023-01-06T02:44:47.135Z,8.95
2023-01-06T02:45:47.355Z,8.91
2023-01-06T02:46:47.139Z,8.94
2023-01-06T02:47:47.130Z,8.94
2023-01-06T02:48:47.090Z,8.97
2023-01-06T02:49:47.089Z,8.82
2023-01-06T02:50:47.066Z,8.89
2023-01-06T02:51:47.116Z,8.88
2023-01-06T02:52:47.068Z,8.85
2023-01-06T02:53:47.036Z,8.87
2023-01-06T02:54:47.025Z,8.88
2023-01-06T02:55:47.036Z,8.88
2023-01-06T02:56:47.012Z,8.84
2023-01-06T02:57:47.105Z,8.88
2023-01-06T02:58:46.970Z,8.85
2023-01-06T02:59:46.989Z,8.85
2023-01-06T03:00:46.996Z,8.91
2023-01-06T03:01:47.042Z,8.88
2023-01-06T03:02:46.987Z,8.91
2023-01-06T03:03:47.114Z,8.88
2023-01-06T03:04:46.947Z,8.91
2023-01-06T03:05:46.945Z,8.88
2023-01-06T03:06:46.930Z,8.82
2023-01-06T03:07:46.904Z,8.87
2023-01-06T03:08:46.887Z,8.88
2023-01-06T03:09:46.877Z,8.95
2023-01-06T03:10:46.857Z,8.94
2023-01-06T03:11:46.847Z,8.94
2023-01-06T03:12:46.827Z,8.88
2023-01-06T03:13:46.924Z,8.95
2023-01-06T03:14:46.806Z,8.92
2023-01-06T03:15:47.015Z,8.94
2023-01-06T03:16:46.789Z,8.84
2023-01-06T03:17:46.767Z,8.97
2023-01-06T03:18:46.747Z,8.97
2023-01-06T03:19:46.734Z,9.00
2023-01-06T03:20:46.719Z,8.94
2023-01-06T03:21:46.729Z,8.91
2023-01-06T03:22:46.737Z,8.95
2023-01-06T03:23:46.728Z,8.84
2023-01-06T03:24:46.752Z,8.92
2023-01-06T03:25:46.693Z,8.94
2023-01-06T03:26:46.661Z,8.94
2023-01-06T03:27:46.658Z,8.94
2023-01-06T03:28:46.649Z,8.88
2023-01-06T03:29:46.758Z,8.92
2023-01-06T03:30:46.627Z,8.95
2023-01-06T03:31:46.615Z,8.89
2023-01-06T03:32:46.604Z,8.95
2023-01-06T03:33:46.599Z,9.00
2023-01-06T03:34:46.580Z,8.92
2023-01-06T03:35:46.576Z,9.00
2023-01-06T03:36:46.550Z,8.85
2023-01-06T03:37:46.551Z,8.85
2023-01-06T03:38:46.551Z,8.97
2023-01-06T03:39:46.527Z,8.89
2023-01-06T03:40:46.560Z,8.99
2023-01-06T03:41:46.538Z,8.88
2023-01-06T03:42:46.502Z,8.89
2023-01-06T03:43:46.520Z,8.88
2023-01-06T03:44:46.475Z,8.94
2023-01-06T03:45:46.577Z,8.92
2023-01-06T03:46:46.508Z,8.84
2023-01-06T03:47:46.486Z,8.88
2023-01-06T03:48:46.448Z,8.88
2023-01-06T03:49:46.438Z,8.91
2023-01-06T03:50:46.428Z,8.89
2023-01-06T03:51:46.450Z,8.88
2023-01-06T03:52:46.623Z,8.85
2023-01-06T03:53:46.401Z,8.87
2023-01-06T03:54:46.381Z,8.99
2023-01-06T03:55:46.378Z,8.84
2023-01-06T03:56:46.353Z,8.91
2023-01-06T03:57:46.391Z,8.89
2023-01-06T03:58:46.349Z,8.82
2023-01-06T03:59:46.524Z,8.82
2023-01-06T04:00:46.373Z,8.76
2023-01-06T04:01:46.948Z,8.81
2023-01-06T04:02:46.276Z,8.85
2023-01-06T04:03:46.291Z,8.81
2023-01-06T04:04:46.268Z,8.81
2023-01-06T04:05:46.662Z,8.85
2023-01-06T04:06:46.252Z,8.97
2023-01-06T04:07:46.236Z,8.94
2023-01-06T04:08:46.220Z,8.89
2023-01-06T04:09:46.235Z,8.94
2023-01-06T04:10:46.199Z,8.92
2023-01-06T04:11:46.416Z,8.85
2023-01-06T04:12:46.609Z,8.99
2023-01-06T04:13:46.178Z,8.95
2023-01-06T04:14:46.155Z,8.92
2023-01-06T04:15:46.158Z,8.91
2023-01-06T04:16:46.145Z,8.95
2023-01-06T04:17:46.238Z,8.92
2023-01-06T04:18:46.112Z,8.99
2023-01-06T04:19:46.120Z,8.95
2023-01-06T04:20:46.096Z,8.81
2023-01-06T04:21:46.085Z,8.85
2023-01-06T04:22:46.088Z,8.85
2023-01-06T04:23:46.070Z,8.82
2023-01-06T04:24:46.091Z,8.97
2023-01-06T04:25:46.063Z,8.92
2023-01-06T04:26:46.037Z,8.89
2023-01-06T04:27:46.033Z,8.88
2023-01-06T04:28:46.093Z,8.92
2023-01-06T04:29:46.033Z,8.94
2023-01-06T04:30:45.993Z,8.91
2023-01-06T04:31:46.064Z,8.89
2023-01-06T04:32:45.979Z,8.84
2023-01-06T04:33:46.079Z,8.85
2023-01-06T04:34:45.931Z,8.85
2023-01-06T04:35:45.933Z,8.88
2023-01-06T04:36:46.147Z,8.85
2023-01-06T04:37:45.919Z,8.84
2023-01-06T04:38:45.935Z,8.88
2023-01-06T04:39:45.900Z,8.85
2023-01-06T04:40:45.928Z,8.82
2023-01-06T04:41:46.130Z,8.78
2023-01-06T04:42:46.080Z,8.85
2023-01-06T04:43:45.881Z,8.85
2023-01-06T04:44:45.886Z,8.89
2023-01-06T04:45:45.861Z,8.85
2023-01-06T04:46:45.859Z,8.88
2023-01-06T04:47:45.820Z,8.99
2023-01-06T04:48:45.827Z,8.99
2023-01-06T04:49:45.902Z,8.94
2023-01-06T04:50:45.812Z,9.00
2023-01-06T04:51:45.758Z,9.04
2023-01-06T04:52:45.751Z,8.99
2023-01-06T04:53:45.773Z,8.94
2023-01-06T04:54:45.784Z,9.03
2023-01-06T04:55:45.733Z,9.03
2023-01-06T04:56:45.718Z,9.06
2023-01-06T04:57:45.735Z,9.04
2023-01-06T04:58:45.695Z,9.11
2023-01-06T04:59:45.702Z,9.10
2023-01-06T05:00:45.723Z,9.02
2023-01-06T05:01:45.724Z,9.06
2023-01-06T05:02:45.649Z,9.10
2023-01-06T05:03:45.682Z,9.10
2023-01-06T05:04:47.946Z,9.08
2023-01-06T05:05:45.751Z,9.14
2023-01-06T05:06:45.619Z,9.04
2023-01-06T05:07:45.608Z,9.03
2023-01-06T05:08:45.623Z,9.21
2023-01-06T05:09:45.777Z,9.18
2023-01-06T05:10:45.596Z,9.23
2023-01-06T05:11:45.555Z,9.28
2023-01-06T05:12:45.759Z,9.19
2023-01-06T05:13:45.535Z,9.23
2023-01-06T05:14:45.531Z,9.21
2023-01-06T05:15:45.520Z,9.22
2023-01-06T05:16:45.576Z,9.14
2023-01-06T05:17:45.521Z,9.16
2023-01-06T05:18:45.509Z,9.19
2023-01-06T05:19:45.514Z,9.22
2023-01-06T05:20:45.459Z,9.29
2023-01-06T05:21:45.645Z,9.23
2023-01-06T05:22:45.453Z,9.25
2023-01-06T05:23:45.643Z,9.23
2023-01-06T05:24:45.463Z,9.21
2023-01-06T05:25:45.410Z,9.19
2023-01-06T05:26:45.593Z,9.28
2023-01-06T05:27:45.403Z,9.14
2023-01-06T05:28:45.432Z,9.22
2023-01-06T05:29:45.429Z,9.21
2023-01-06T05:30:45.370Z,9.21
2023-01-06T05:31:45.401Z,9.22
2023-01-06T05:32:45.336Z,9.16
2023-01-06T05:33:45.385Z,9.22
2023-01-06T05:34:45.316Z,9.21
2023-01-06T05:35:45.360Z,9.28
2023-01-06T05:36:45.575Z,9.18
2023-01-06T05:37:45.607Z,9.21
2023-01-06T05:38:45.291Z,9.18
2023-01-06T05:39:45.287Z,9.19
2023-01-06T05:40:45.269Z,9.22
2023-01-06T05:41:45.446Z,9.21
2023-01-06T05:42:45.222Z,9.22
2023-01-06T05:43:45.328Z,9.22
2023-01-06T05:44:45.288Z,9.25
2023-01-06T05:45:45.258Z,9.25
2023-01-06T05:46:46.234Z,9.26
2023-01-06T05:47:45.195Z,9.23
2023-01-06T05:48:45.207Z,9.21
2023-01-06T05:49:46.842Z,9.21
2023-01-06T05:50:45.166Z,9.23
2023-01-06T05:51:45.154Z,9.26
2023-01-06T05:52:45.147Z,9.25
2023-01-06T05:53:45.377Z,9.25
2023-01-06T05:54:45.105Z,9.25
2023-01-06T05:55:45.090Z,9.23
2023-01-06T05:56:45.087Z,9.22
2023-01-06T05:57:45.112Z,9.26
2023-01-06T05:58:45.126Z,9.28
2023-01-06T05:59:45.073Z,9.25
2023-01-06T06:00:45.073Z,9.21
2023-01-06T06:01:45.150Z,9.29
2023-01-06T06:02:45.043Z,9.32
2023-01-06T06:03:45.172Z,9.46
2023-01-06T06:04:45.025Z,9.41
2023-01-06T06:05:45.090Z,9.36
2023-01-06T06:06:45.058Z,9.36
2023-01-06T06:07:44.976Z,9.39
2023-01-06T06:08:45.044Z,9.29
2023-01-06T06:09:45.061Z,9.32
2023-01-06T06:10:44.964Z,9.28
2023-01-06T06:11:44.944Z,9.23
2023-01-06T06:12:44.917Z,9.32
2023-01-06T06:13:45.132Z,9.40
2023-01-06T06:14:44.919Z,9.31
2023-01-06T06:15:45.135Z,9.41
2023-01-06T06:16:44.940Z,9.36
2023-01-06T06:17:44.906Z,9.34
2023-01-06T06:18:44.888Z,9.39
2023-01-06T06:19:44.881Z,9.47
2023-01-06T06:20:44.890Z,9.48
2023-01-06T06:21:44.854Z,9.36
2023-01-06T06:22:44.852Z,9.43
2023-01-06T06:23:44.837Z,9.46
2023-01-06T06:24:44.857Z,9.40
2023-01-06T06:25:44.938Z,9.40
2023-01-06T06:26:44.813Z,9.41
2023-01-06T06:27:44.780Z,9.37
2023-01-06T06:28:44.766Z,9.44
2023-01-06T06:29:44.749Z,9.37
2023-01-06T06:30:44.761Z,9.37
2023-01-06T06:31:45.042Z,9.41
2023-01-06T06:32:44.900Z,9.43
2023-01-06T06:33:44.721Z,9.36
2023-01-06T06:34:44.706Z,9.37
2023-01-06T06:35:44.751Z,9.41
2023-01-06T06:36:44.689Z,9.29
2023-01-06T06:37:44.657Z,9.37
2023-01-06T06:38:44.719Z,9.37
2023-01-06T06:39:44.690Z,9.37
2023-01-06T06:40:44.633Z,9.40
2023-01-06T06:41:44.751Z,9.39
2023-01-06T06:42:44.627Z,9.39
2023-01-06T06:43:44.611Z,9.34
2023-01-06T06:44:44.611Z,9.47
2023-01-06T06:45:44.650Z,9.41
2023-01-06T06:46:45.009Z,9.50
2023-01-06T06:47:44.589Z,9.51
2023-01-06T06:48:44.584Z,9.48
2023-01-06T06:49:44.540Z,9.46
2023-01-06T06:50:44.558Z,9.54
2023-01-06T06:51:44.509Z,9.46
2023-01-06T06:52:44.529Z,9.41
2023-01-06T06:53:44.512Z,9.54
2023-01-06T06:54:44.711Z,9.65
2023-01-06T06:55:44.483Z,9.59
2023-01-06T06:56:44.462Z,9.61
2023-01-06T06:57:44.588Z,9.55
2023-01-06T06:58:44.453Z,9.59
2023-01-06T06:59:44.448Z,9.48
2023-01-06T07:00:44.428Z,9.51
2023-01-06T07:01:44.573Z,9.50
2023-01-06T07:02:44.653Z,9.48
2023-01-06T07:03:44.588Z,9.46
2023-01-06T07:04:44.435Z,9.54
2023-01-06T07:05:44.376Z,9.54
2023-01-06T07:06:44.390Z,9.50
2023-01-06T07:07:44.367Z,9.50
2023-01-06T07:08:44.355Z,9.58
2023-01-06T07:09:44.775Z,9.51
2023-01-06T07:10:44.336Z,9.54
2023-01-06T07:11:44.358Z,9.50
2023-01-06T07:12:44.296Z,9.46
2023-01-06T07:13:44.416Z,9.47
2023-01-06T07:14:44.272Z,9.51
2023-01-06T07:15:44.280Z,9.55
2023-01-06T07:16:44.250Z,9.44
2023-01-06T07:17:44.269Z,9.46
2023-01-06T07:18:44.249Z,9.43
2023-01-06T07:19:44.220Z,9.47
2023-01-06T07:20:44.636Z,9.47
2023-01-06T07:21:44.216Z,9.47
2023-01-06T07:22:44.191Z,9.44
2023-01-06T07:23:44.222Z,9.47
2023-01-06T07:24:44.430Z,9.51
2023-01-06T07:25:44.161Z,9.51
2023-01-06T07:26:44.158Z,9.47
2023-01-06T07:27:44.153Z,9.46
2023-01-06T07:28:44.145Z,9.43
2023-01-06T07:29:44.812Z,9.47
2023-01-06T07:30:44.137Z,9.46
2023-01-06T07:31:44.099Z,9.48
2023-01-06T07:32:44.134Z,9.47
2023-01-06T07:33:44.131Z,9.47
2023-01-06T07:34:44.073Z,9.47
2023-01-06T07:35:44.462Z,9.46
2023-01-06T07:36:44.045Z,9.51
2023-01-06T07:37:44.041Z,9.48
2023-01-06T07:38:44.035Z,9.48
2023-01-06T07:39:44.212Z,9.48
2023-01-06T07:40:44.057Z,9.51
2023-01-06T07:41:44.017Z,9.50
2023-01-06T07:42:44.038Z,9.58
2023-01-06T07:43:43.994Z,9.48
2023-01-06T07:44:44.196Z,9.54
2023-01-06T07:45:44.147Z,9.48
2023-01-06T07:46:43.939Z,9.56
2023-01-06T07:47:43.958Z,9.50
2023-01-06T07:48:43.938Z,9.48
2023-01-06T07:49:43.920Z,9.51
2023-01-06T07:50:43.942Z,9.64
2023-01-06T07:51:43.926Z,9.59
2023-01-06T07:52:43.891Z,9.58
2023-01-06T07:53:43.878Z,9.61
2023-01-06T07:54:43.868Z,9.62
2023-01-06T07:55:43.876Z,9.65
2023-01-06T07:56:43.839Z,9.62
2023-01-06T07:57:43.840Z,9.58
2023-01-06T07:58:43.972Z,9.62
2023-01-06T07:59:43.817Z,9.56
2023-01-06T08:00:43.870Z,9.62
2023-01-06T08:01:44.188Z,9.61
2023-01-06T08:02:43.950Z,9.64
2023-01-06T08:03:43.938Z,9.64
2023-01-06T08:04:43.759Z,9.62
2023-01-06T08:05:43.751Z,9.68
2023-01-06T08:06:43.766Z,9.77
2023-01-06T08:07:43.761Z,9.83
2023-01-06T08:08:43.722Z,9.94
2023-01-06T08:09:43.722Z,9.94
2023-01-06T08:10:43.711Z,9.95
2023-01-06T08:11:43.687Z,9.99
2023-01-06T08:12:43.684Z,9.95
2023-01-06T08:13:44.087Z,9.98
2023-01-06T08:14:43.858Z,10.07
2023-01-06T08:15:43.686Z,9.97
2023-01-06T08:16:43.656Z,10.07
2023-01-06T08:17:43.758Z,10.02
2023-01-06T08:18:43.675Z,10.09
2023-01-06T08:19:43.823Z,10.07
2023-01-06T08:20:43.608Z,10.02
2023-01-06T08:21:43.593Z,10.01
2023-01-06T08:22:43.589Z,9.95
2023-01-06T08:23:43.572Z,9.99
2023-01-06T08:24:43.567Z,9.95
2023-01-06T08:25:43.553Z,10.01
2023-01-06T08:26:43.561Z,9.95
2023-01-06T08:27:43.544Z,9.94
2023-01-06T08:28:43.522Z,9.95
2023-01-06T08:29:43.518Z,9.98
2023-01-06T08:30:43.547Z,9.97
2023-01-06T08:31:43.704Z,10.09
2023-01-06T08:32:43.481Z,9.95
2023-01-06T08:33:43.659Z,10.02
2023-01-06T08:34:43.512Z,10.07
2023-01-06T08:35:43.482Z,10.09
2023-01-06T08:36:43.644Z,10.04
2023-01-06T08:37:43.480Z,10.05
2023-01-06T08:38:43.420Z,10.05
2023-01-06T08:39:43.406Z,10.04
2023-01-06T08:40:43.406Z,10.05
2023-01-06T08:41:43.387Z,10.02
2023-01-06T08:42:43.382Z,10.09
2023-01-06T08:43:44.959Z,10.12
2023-01-06T08:44:43.596Z,10.12
2023-01-06T08:45:43.570Z,10.13
2023-01-06T08:46:43.407Z,10.16
2023-01-06T08:47:43.336Z,10.13
2023-01-06T08:48:43.328Z,10.17
2023-01-06T08:49:43.658Z,10.19
2023-01-06T08:50:43.340Z,10.15
2023-01-06T08:51:43.347Z,10.19
2023-01-06T08:52:43.313Z,10.22
2023-01-06T08:53:43.289Z,10.19
2023-01-06T08:54:43.295Z,10.23
2023-01-06T08:55:43.299Z,10.25
2023-01-06T08:56:43.277Z,10.23
2023-01-06T08:57:43.248Z,10.28
2023-01-06T08:58:43.238Z,10.30
2023-01-06T08:59:43.230Z,10.35
2023-01-06T09:00:43.212Z,10.37
2023-01-06T09:01:43.390Z,10.35
2023-01-06T09:02:43.194Z,10.38
2023-01-06T09:03:43.465Z,10.42
2023-01-06T09:04:43.210Z,10.51
2023-01-06T09:05:43.333Z,10.54
2023-01-06T09:06:43.154Z,10.53
2023-01-06T09:07:43.181Z,10.59
2023-01-06T09:08:43.140Z,10.57
2023-01-06T09:09:43.119Z,10.63
2023-01-06T09:10:43.126Z,10.59
2023-01-06T09:11:43.108Z,10.60
2023-01-06T09:12:43.088Z,10.59
2023-01-06T09:13:43.092Z,10.67
2023-01-06T09:14:43.101Z,10.67
2023-01-06T09:15:43.079Z,10.69
2023-01-06T09:16:43.052Z,10.67
2023-01-06T09:17:43.046Z,10.69
2023-01-06T09:18:43.232Z,10.67
2023-01-06T09:19:43.058Z,10.68
2023-01-06T09:20:43.007Z,10.69
2023-01-06T09:21:43.140Z,10.74
2023-01-06T09:22:43.037Z,10.76
2023-01-06T09:23:43.032Z,10.81
2023-01-06T09:24:42.991Z,10.79
2023-01-06T09:25:42.992Z,10.72
2023-01-06T09:26:42.985Z,10.79
2023-01-06T09:27:43.190Z,10.79
2023-01-06T09:28:43.010Z,10.81
2023-01-06T09:29:42.937Z,10.79
2023-01-06T09:30:42.927Z,10.79
2023-01-06T09:31:42.926Z,10.82
2023-01-06T09:32:42.916Z,10.82
2023-01-06T09:33:42.955Z,10.75
2023-01-06T09:34:42.906Z,10.79
2023-01-06T09:35:43.069Z,10.76
2023-01-06T09:36:42.886Z,10.79
2023-01-06T09:37:42.981Z,10.89
2023-01-06T09:38:42.884Z,10.82
2023-01-06T09:39:42.853Z,10.87
2023-01-06T09:40:42.839Z,10.86
2023-01-06T09:41:42.863Z,10.86
2023-01-06T09:42:42.838Z,10.96
2023-01-06T09:43:42.791Z,10.92
2023-01-06T09:44:42.794Z,10.96
2023-01-06T09:45:42.799Z,11.08
2023-01-06T09:46:43.288Z,11.02
2023-01-06T09:47:42.778Z,10.96
2023-01-06T09:48:42.753Z,11.04
2023-01-06T09:49:42.740Z,11.07
2023-01-06T09:50:42.727Z,10.97
2023-01-06T09:51:42.740Z,11.05
2023-01-06T09:52:42.733Z,11.12
2023-01-06T09:53:42.883Z,11.10
2023-01-06T09:54:42.720Z,11.17
2023-01-06T09:55:42.720Z,11.11
2023-01-06T09:56:42.692Z,11.19
2023-01-06T09:57:42.683Z,11.10
2023-01-06T09:58:42.885Z,11.14
2023-01-06T09:59:42.655Z,11.23
2023-01-06T10:00:42.907Z,11.11
2023-01-06T10:01:42.934Z,11.23
2023-01-06T10:02:42.613Z,11.10
2023-01-06T10:03:42.634Z,11.19
2023-01-06T10:04:42.618Z,11.12
2023-01-06T10:05:42.637Z,11.12
2023-01-06T10:06:42.583Z,11.15
2023-01-06T10:07:42.582Z,11.22
2023-01-06T10:08:42.587Z,11.18
2023-01-06T10:09:42.687Z,11.14
2023-01-06T10:10:42.736Z,11.19
2023-01-06T10:11:42.537Z,11.18
2023-01-06T10:12:42.567Z,11.22
2023-01-06T10:13:42.539Z,11.14
2023-01-06T10:14:42.506Z,11.22
2023-01-06T10:15:42.509Z,11.26
2023-01-06T10:16:42.480Z,11.27
2023-01-06T10:17:42.515Z,11.27
2023-01-06T10:18:42.508Z,11.27
2023-01-06T10:19:42.481Z,11.22
2023-01-06T10:20:42.452Z,11.36
2023-01-06T10:21:42.457Z,11.37
2023-01-06T10:22:42.468Z,11.41
2023-01-06T10:23:42.426Z,11.36
2023-01-06T10:24:42.418Z,11.47
2023-01-06T10:25:42.512Z,11.48
2023-01-06T10:26:42.399Z,11.51
2023-01-06T10:27:42.409Z,11.52
2023-01-06T10:28:42.391Z,11.55
2023-01-06T10:29:42.384Z,11.62
2023-01-06T10:30:44.328Z,11.57
2023-01-06T10:31:42.453Z,11.57
2023-01-06T10:32:42.969Z,11.47
2023-01-06T10:33:42.374Z,11.54
2023-01-06T10:34:42.332Z,11.59
2023-01-06T10:35:42.509Z,11.50
2023-01-06T10:36:42.298Z,11.54
2023-01-06T10:37:42.323Z,11.55
2023-01-06T10:38:42.303Z,11.65
2023-01-06T10:39:42.461Z,11.72
2023-01-06T10:40:42.256Z,11.80
2023-01-06T10:41:42.366Z,11.77
2023-01-06T10:42:42.257Z,11.88
2023-01-06T10:43:42.344Z,11.86
2023-01-06T10:44:42.224Z,11.91
2023-01-06T10:45:42.203Z,11.94
2023-01-06T10:46:42.248Z,11.95
2023-01-06T10:47:42.303Z,11.97
2023-01-06T10:48:42.213Z,11.97
2023-01-06T10:49:42.202Z,11.88
2023-01-06T10:50:42.180Z,12.00
2023-01-06T10:51:42.159Z,11.97
2023-01-06T10:52:42.148Z,11.97
2023-01-06T10:53:42.434Z,11.97
2023-01-06T10:54:42.392Z,11.88
2023-01-06T10:55:42.135Z,11.94
2023-01-06T10:56:42.321Z,12.00
2023-01-06T10:57:42.303Z,11.99
2023-01-06T10:58:42.127Z,11.95
2023-01-06T10:59:42.102Z,11.90
2023-01-06T11:00:42.181Z,11.91
2023-01-06T11:01:42.318Z,11.91
2023-01-06T11:02:42.314Z,11.91
2023-01-06T11:03:42.144Z,11.94
2023-01-06T11:04:42.044Z,11.95
2023-01-06T11:05:42.060Z,11.91
2023-01-06T11:06:42.034Z,11.84
2023-01-06T11:07:42.162Z,11.81
2023-01-06T11:08:42.008Z,11.70
2023-01-06T11:09:42.054Z,11.66
2023-01-06T11:10:42.019Z,11.62
2023-01-06T11:11:41.966Z,11.69
2023-01-06T11:12:42.008Z,11.62
2023-01-06T11:13:42.086Z,11.62
2023-01-06T11:14:41.956Z,11.68
2023-01-06T11:15:41.938Z,11.60
2023-01-06T11:16:41.977Z,11.60
2023-01-06T11:17:41.919Z,11.60
2023-01-06T11:18:41.902Z,11.62
2023-01-06T11:19:41.915Z,11.65
2023-01-06T11:20:41.896Z,11.59
2023-01-06T11:21:41.883Z,11.60
2023-01-06T11:22:41.897Z,11.63
2023-01-06T11:23:41.955Z,11.54
2023-01-06T11:24:41.851Z,11.55
2023-01-06T11:25:41.853Z,11.50
2023-01-06T11:26:41.851Z,11.47
2023-01-06T11:27:41.877Z,11.47
2023-01-06T11:28:41.824Z,11.50
2023-01-06T11:29:42.004Z,11.45
2023-01-06T11:30:41.826Z,11.50
2023-01-06T11:31:41.825Z,11.43
2023-01-06T11:32:41.810Z,11.47
2023-01-06T11:33:41.785Z,11.41
2023-01-06T11:34:41.977Z,11.43
2023-01-06T11:35:41.976Z,11.54
2023-01-06T11:36:41.771Z,11.48
2023-01-06T11:37:41.734Z,11.36
2023-01-06T11:38:41.844Z,11.43
2023-01-06T11:39:42.087Z,11.43
2023-01-06T11:40:41.754Z,11.37
2023-01-06T11:41:41.698Z,11.47
2023-01-06T11:43:41.717Z,11.47
2023-01-06T11:44:41.770Z,11.48
2023-01-06T11:45:42.065Z,11.48
2023-01-06T11:46:41.663Z,11.52
2023-01-06T11:47:41.651Z,11.60
2023-01-06T11:48:41.663Z,11.59
2023-01-06T11:49:41.635Z,11.66
2023-01-06T11:50:41.620Z,11.70
2023-01-06T11:51:41.630Z,11.69
2023-01-06T11:52:41.605Z,11.72
2023-01-06T11:53:41.583Z,11.77
2023-01-06T11:54:41.586Z,11.80
2023-01-06T11:55:41.572Z,11.80
2023-01-06T11:56:41.791Z,11.91
2023-01-06T11:57:41.560Z,11.94
2023-01-06T11:58:41.549Z,11.90
2023-01-06T11:59:41.580Z,11.87
2023-01-06T12:00:41.541Z,11.91
2023-01-06T12:01:41.791Z,11.83
2023-01-06T12:02:41.557Z,11.88
2023-01-06T12:03:41.875Z,11.86
2023-01-06T12:04:41.533Z,12.03
2023-01-06T12:05:41.523Z,11.97
2023-01-06T12:06:41.478Z,11.88
2023-01-06T12:07:41.504Z,11.83
2023-01-06T12:08:41.462Z,11.73
2023-01-06T12:09:42.603Z,11.60
2023-01-06T12:10:41.455Z,11.62
2023-01-06T12:11:41.430Z,11.51
2023-01-06T12:12:41.412Z,11.50
2023-01-06T12:13:44.896Z,11.47
2023-01-06T12:14:41.421Z,11.51
2023-01-06T12:15:41.395Z,11.65
2023-01-06T12:16:41.543Z,11.66
2023-01-06T12:17:41.632Z,11.65
2023-01-06T12:18:41.362Z,11.73
2023-01-06T12:19:41.384Z,11.81
2023-01-06T12:20:41.552Z,11.77
2023-01-06T12:21:41.363Z,11.87
2023-01-06T12:22:41.363Z,11.83
2023-01-06T12:23:41.536Z,11.87
2023-01-06T12:24:41.313Z,11.90
2023-01-06T12:25:41.287Z,11.90
2023-01-06T12:26:41.298Z,11.91
2023-01-06T12:27:41.309Z,11.90
2023-01-06T12:28:41.329Z,11.90
2023-01-06T12:29:41.479Z,11.95
2023-01-06T12:30:41.563Z,11.94
2023-01-06T12:31:41.277Z,11.94
2023-01-06T12:32:41.225Z,11.95
2023-01-06T12:33:41.343Z,11.95
2023-01-06T12:34:41.232Z,11.87
2023-01-06T12:35:41.235Z,11.88
2023-01-06T12:36:41.416Z,11.86
2023-01-06T12:37:41.232Z,11.84
2023-01-06T12:38:41.186Z,11.84
2023-01-06T12:39:41.175Z,11.78
2023-01-06T12:40:41.178Z,11.88
2023-01-06T12:41:41.163Z,11.97
2023-01-06T12:42:41.190Z,11.95
2023-01-06T12:43:41.350Z,11.99
2023-01-06T12:44:41.334Z,11.97
2023-01-06T12:45:43.482Z,11.95
2023-01-06T12:46:41.154Z,11.99
2023-01-06T12:47:41.090Z,11.94
2023-01-06T12:48:41.217Z,11.91
2023-01-06T12:49:41.141Z,11.90
2023-01-06T12:50:41.302Z,11.87
2023-01-06T12:51:41.050Z,11.94
2023-01-06T12:52:41.115Z,11.86
2023-01-06T12:53:41.280Z,11.97
2023-01-06T12:54:41.267Z,11.95
2023-01-06T12:55:41.075Z,12.00
2023-01-06T12:56:41.041Z,11.91
2023-01-06T12:57:41.021Z,11.90
2023-01-06T12:58:41.028Z,12.06
2023-01-06T12:59:41.001Z,12.09
2023-01-06T13:00:40.999Z,12.06
2023-01-06T13:01:41.161Z,12.07
2023-01-06T13:02:40.961Z,12.04
2023-01-06T13:03:41.091Z,12.12
2023-01-06T13:04:40.986Z,12.10
2023-01-06T13:05:41.072Z,12.18
2023-01-06T13:06:40.967Z,12.15
2023-01-06T13:07:40.960Z,12.18
2023-01-06T13:08:40.960Z,12.27
2023-01-06T13:09:40.895Z,12.28